createdAt,value
2022-08-02T00:02:20.654Z,100.00
2022-08-02T00:04:47.270Z,100.00
2022-08-02T00:07:14.912Z,100.00
2022-08-02T00:09:42.608Z,100.00
2022-08-02T00:12:09.630Z,100.00
2022-08-02T00:14:36.733Z,100.00
2022-08-02T00:17:03.505Z,100.00
2022-08-02T00:19:29.948Z,100.00
2022-08-02T00:21:56.413Z,100.00
2022-08-02T00:24:30.911Z,100.00
2022-08-02T00:26:57.838Z,100.00
2022-08-02T00:29:24.909Z,100.00
2022-08-02T00:31:51.359Z,100.00
2022-08-02T00:34:29.345Z,100.00
2022-08-02T00:36:58.678Z,100.00
2022-08-02T00:39:34.677Z,100.00
2022-08-02T00:42:01.948Z,100.00
2022-08-02T00:44:28.393Z,100.00
2022-08-02T00:46:54.836Z,100.00
2022-08-02T00:49:21.534Z,100.00
2022-08-02T00:51:48.107Z,100.00
2022-08-02T00:54:14.820Z,100.00
2022-08-02T00:56:49.757Z,100.00
2022-08-02T00:59:17.637Z,100.00
2022-08-02T01:01:57.145Z,100.00
2022-08-02T01:04:29.695Z,100.00
2022-08-02T01:06:57.232Z,100.00
2022-08-02T01:09:23.698Z,100.00
2022-08-02T01:11:50.140Z,100.00
2022-08-02T01:14:16.760Z,100.00
2022-08-02T01:16:48.605Z,100.00
2022-08-02T01:19:21.055Z,100.00
2022-08-02T01:22:58.537Z,100.00
2022-08-02T01:25:27.160Z,100.00
2022-08-02T01:28:02.655Z,100.00
2022-08-02T01:30:29.156Z,100.00
2022-08-02T01:32:57.791Z,100.00
2022-08-02T01:35:28.485Z,100.00
2022-08-02T01:38:43.674Z,100.00
2022-08-02T01:41:10.403Z,98.28
2022-08-02T01:43:36.866Z,97.16
2022-08-02T01:46:03.325Z,97.63
2022-08-02T01:48:29.844Z,95.93
2022-08-02T01:50:56.279Z,92.48
2022-08-02T01:53:22.870Z,91.96
2022-08-02T01:55:57.573Z,89.81
2022-08-02T01:58:26.991Z,88.51
2022-08-02T02:00:53.498Z,87.92
2022-08-02T02:03:20.892Z,87.09
2022-08-02T02:05:48.096Z,85.91
2022-08-02T02:08:14.546Z,86.06
2022-08-02T02:10:53.960Z,86.10
2022-08-02T02:13:20.421Z,86.17
2022-08-02T02:16:01.421Z,84.39
2022-08-02T02:18:28.095Z,84.48
2022-08-02T02:20:54.625Z,86.25
2022-08-02T02:23:25.115Z,85.68
2022-08-02T02:25:53.010Z,87.07
2022-08-02T02:28:24.450Z,85.12
2022-08-02T02:30:53.338Z,83.61
2022-08-02T02:33:20.599Z,82.77
2022-08-02T02:35:48.040Z,83.38
2022-08-02T02:38:14.937Z,81.33
2022-08-02T02:40:41.529Z,81.30
2022-08-02T02:43:08.222Z,78.79
2022-08-02T02:45:34.671Z,73.83
2022-08-02T02:48:01.117Z,68.84
2022-08-02T02:50:27.687Z,68.81
2022-08-02T02:52:54.154Z,69.52
2022-08-02T02:55:20.607Z,70.20
2022-08-02T02:57:47.042Z,70.22
2022-08-02T03:00:14.157Z,68.35
2022-08-02T03:02:42.427Z,66.95
2022-08-02T03:05:09.526Z,68.44
2022-08-02T03:07:36.025Z,67.83
2022-08-02T03:10:06.527Z,66.86
2022-08-02T03:12:34.212Z,67.71
2022-08-02T03:15:04.246Z,63.94
2022-08-02T03:17:41.328Z,66.92
2022-08-02T03:20:14.124Z,65.89
2022-08-02T03:22:40.881Z,62.31
2022-08-02T03:25:08.718Z,56.37
2022-08-02T03:27:35.265Z,50.63
2022-08-02T03:30:01.771Z,47.55
2022-08-02T03:32:28.306Z,45.50
2022-08-02T03:34:54.765Z,40.13
2022-08-02T03:37:21.420Z,39.78
2022-08-02T03:39:52.814Z,32.41
2022-08-02T03:42:20.873Z,29.55
2022-08-02T03:44:48.261Z,28.33
2022-08-02T03:47:14.701Z,29.94
2022-08-02T03:49:41.576Z,31.21
2022-08-02T03:52:08.197Z,32.66
2022-08-02T03:54:45.086Z,31.43
2022-08-02T03:57:12.021Z,30.58
2022-08-02T03:59:42.961Z,31.92
2022-08-02T04:02:09.949Z,28.98
2022-08-02T04:04:36.724Z,29.25
2022-08-02T04:07:03.307Z,25.42
2022-08-02T04:09:34.096Z,22.28
2022-08-02T04:12:00.523Z,19.32
2022-08-02T04:14:26.958Z,17.64
2022-08-02T04:17:06.298Z,15.59
2022-08-02T04:19:36.171Z,15.82
2022-08-02T04:22:04.863Z,15.87
2022-08-02T04:24:34.992Z,14.08
2022-08-02T04:27:19.129Z,5.09
2022-08-02T04:29:47.063Z,0.00
2022-08-02T04:32:14.183Z,0.00
2022-08-02T04:34:40.961Z,0.00
2022-08-02T04:37:07.384Z,0.00
2022-08-02T04:39:34.290Z,0.00
2022-08-02T04:42:00.730Z,1.25
2022-08-02T04:44:27.351Z,3.05
2022-08-02T04:46:54.583Z,4.92
2022-08-02T04:49:21.121Z,6.91
2022-08-02T04:51:47.659Z,7.04
2022-08-02T04:54:14.153Z,7.20
2022-08-02T04:56:40.681Z,7.25
2022-08-02T04:59:07.274Z,7.57
2022-08-02T05:01:34.856Z,7.22
2022-08-02T05:04:01.396Z,8.25
2022-08-02T05:06:27.848Z,9.23
2022-08-02T05:08:54.294Z,10.72
2022-08-02T05:11:22.252Z,12.54
2022-08-02T05:13:57.457Z,10.87
2022-08-02T05:16:31.505Z,7.79
2022-08-02T05:18:59.573Z,6.39
2022-08-02T05:21:26.065Z,5.32
2022-08-02T05:23:52.501Z,5.80
2022-08-02T05:26:18.969Z,5.77
2022-08-02T05:28:45.438Z,9.44
2022-08-02T05:31:12.536Z,10.79
2022-08-02T05:33:40.125Z,9.73
2022-08-02T05:36:06.922Z,10.02
2022-08-02T05:38:37.023Z,12.75
2022-08-02T05:41:03.998Z,13.34
2022-08-02T05:43:30.448Z,13.00
2022-08-02T05:45:56.935Z,14.01
2022-08-02T05:48:26.566Z,14.78
2022-08-02T05:51:04.427Z,12.91
2022-08-02T05:53:58.213Z,11.62
2022-08-02T05:56:38.879Z,12.25
2022-08-02T05:59:18.117Z,14.37
2022-08-02T06:01:44.880Z,15.98
2022-08-02T06:04:16.028Z,15.67
2022-08-02T06:06:44.059Z,16.54
2022-08-02T06:09:14.975Z,20.88
2022-08-02T06:12:01.334Z,21.50
2022-08-02T06:14:31.769Z,23.51
2022-08-02T06:16:58.293Z,25.57
2022-08-02T06:19:25.832Z,24.38
2022-08-02T06:22:35.044Z,28.31
2022-08-02T06:24:38.984Z,31.89
2022-08-02T06:27:05.475Z,30.53
2022-08-02T06:29:35.690Z,28.45
2022-08-02T06:32:07.093Z,30.07
2022-08-02T06:34:38.313Z,34.41
2022-08-02T06:37:27.929Z,35.81
2022-08-02T06:40:02.126Z,37.51
2022-08-02T06:42:38.751Z,40.45
2022-08-02T06:45:05.635Z,43.56
2022-08-02T06:47:32.078Z,46.80
2022-08-02T06:49:58.662Z,56.82
2022-08-02T06:52:28.930Z,71.19
2022-08-02T06:54:59.906Z,79.49
2022-08-02T06:57:27.283Z,82.58
2022-08-02T06:59:53.797Z,80.30
2022-08-02T07:02:20.256Z,80.78
2022-08-02T07:04:46.721Z,81.83
2022-08-02T07:07:13.153Z,89.95
2022-08-02T07:09:39.646Z,87.76
2022-08-02T07:12:22.567Z,88.65
2022-08-02T07:14:49.014Z,98.63
2022-08-02T07:17:15.458Z,99.93
2022-08-02T07:19:41.954Z,100.00
2022-08-02T07:22:08.469Z,100.00
2022-08-02T07:24:34.894Z,100.00
2022-08-02T07:27:11.085Z,100.00
2022-08-02T07:29:46.690Z,100.00
2022-08-02T07:32:17.894Z,100.00
2022-08-02T07:34:53.119Z,100.00
2022-08-02T07:37:35.694Z,100.00
2022-08-02T07:40:14.540Z,100.00
2022-08-02T07:42:44.798Z,100.00
2022-08-02T07:45:11.786Z,100.00
2022-08-02T07:47:39.249Z,100.00
2022-08-02T07:50:06.266Z,100.00
2022-08-02T07:52:32.745Z,100.00
2022-08-02T07:54:59.133Z,100.00
2022-08-02T07:57:25.615Z,100.00
2022-08-02T07:59:52.166Z,100.00
2022-08-02T08:02:18.645Z,100.00
2022-08-02T08:04:45.090Z,100.00
2022-08-02T08:07:11.891Z,100.00
2022-08-02T08:09:50.691Z,100.00
2022-08-02T08:12:20.113Z,100.00
2022-08-02T08:14:46.575Z,100.00
2022-08-02T08:17:13.143Z,100.00
2022-08-02T08:19:51.246Z,100.00
2022-08-02T08:22:19.290Z,100.00
2022-08-02T08:24:45.775Z,100.00
2022-08-02T08:27:14.619Z,100.00
2022-08-02T08:29:44.066Z,100.00
2022-08-02T08:32:16.330Z,100.00
2022-08-02T08:34:45.437Z,100.00
2022-08-02T08:37:17.041Z,100.00
2022-08-02T08:39:57.803Z,100.00
2022-08-02T08:42:28.939Z,100.00
2022-08-02T08:44:56.558Z,100.00
2022-08-02T08:47:25.863Z,100.00
2022-08-02T08:49:53.349Z,100.00
2022-08-02T08:52:20.459Z,100.00
2022-08-02T08:54:48.608Z,100.00
2022-08-02T08:57:16.106Z,100.00
2022-08-02T08:59:42.633Z,100.00
2022-08-02T09:02:20.404Z,100.00
2022-08-02T09:04:54.542Z,100.00
2022-08-02T09:07:22.141Z,100.00
2022-08-02T09:09:48.606Z,100.00
2022-08-02T09:12:16.038Z,100.00
2022-08-02T09:14:42.484Z,100.00
2022-08-02T09:17:12.128Z,100.00
2022-08-02T09:19:38.743Z,100.00
2022-08-02T09:22:13.157Z,100.00
2022-08-02T09:24:47.771Z,100.00
2022-08-02T09:27:18.929Z,100.00
2022-08-02T09:30:12.550Z,100.00
2022-08-02T09:32:44.600Z,100.00
2022-08-02T09:35:11.046Z,100.00
2022-08-02T09:37:37.529Z,100.00
2022-08-02T09:40:06.795Z,100.00
2022-08-02T09:42:34.217Z,100.00
2022-08-02T09:45:01.410Z,100.00
2022-08-02T09:47:30.988Z,100.00
2022-08-02T09:49:58.410Z,100.00
2022-08-02T09:52:36.929Z,100.00
2022-08-02T09:55:05.181Z,100.00
2022-08-02T09:57:33.590Z,100.00
2022-08-02T10:00:00.134Z,100.00
2022-08-02T10:02:26.837Z,100.00
2022-08-02T10:04:54.141Z,100.00
2022-08-02T10:07:22.550Z,100.00
2022-08-02T10:09:49.480Z,100.00
2022-08-02T10:12:16.074Z,100.00
2022-08-02T10:14:43.820Z,100.00
2022-08-02T10:17:10.393Z,100.00
2022-08-02T10:19:59.768Z,100.00
2022-08-02T10:22:23.395Z,100.00
2022-08-02T10:24:49.882Z,100.00
2022-08-02T10:27:19.730Z,100.00
2022-08-02T10:29:55.326Z,100.00
2022-08-02T10:32:36.638Z,100.00
2022-08-02T10:35:25.994Z,100.00
2022-08-02T10:37:54.589Z,100.00
2022-08-02T10:40:24.072Z,100.00
2022-08-02T10:42:52.108Z,100.00
2022-08-02T10:45:19.950Z,100.00
2022-08-02T10:48:03.487Z,100.00
2022-08-02T10:50:45.292Z,100.00
2022-08-02T10:53:23.899Z,100.00
2022-08-02T10:55:50.780Z,100.00
2022-08-02T10:58:26.159Z,100.00
2022-08-02T11:00:57.567Z,100.00
2022-08-02T11:03:39.430Z,100.00
2022-08-02T11:06:26.098Z,100.00
2022-08-02T11:09:31.905Z,100.00
2022-08-02T11:12:06.844Z,99.46
2022-08-02T11:14:37.899Z,100.00
2022-08-02T11:17:05.808Z,99.92
2022-08-02T11:19:32.511Z,97.53
2022-08-02T11:22:06.155Z,96.01
2022-08-02T11:24:33.755Z,95.97
2022-08-02T11:27:01.977Z,93.14
2022-08-02T11:29:32.688Z,93.75
2022-08-02T11:32:05.897Z,93.65
2022-08-02T11:34:37.472Z,90.20
2022-08-02T11:37:04.506Z,88.34
2022-08-02T11:39:31.032Z,88.08
2022-08-02T11:41:59.080Z,88.89
2022-08-02T11:44:26.446Z,89.27
2022-08-02T11:46:56.725Z,87.87
2022-08-02T11:49:23.291Z,86.19
2022-08-02T11:51:54.280Z,88.53
2022-08-02T11:54:31.496Z,85.86
2022-08-02T11:57:21.658Z,83.46
2022-08-02T11:59:49.756Z,82.53
2022-08-02T12:02:16.559Z,82.02
2022-08-02T12:04:44.109Z,81.34
2022-08-02T12:07:10.706Z,81.74
2022-08-02T12:09:41.144Z,81.48
2022-08-02T12:12:07.830Z,79.31
2022-08-02T12:14:34.451Z,79.23
2022-08-02T12:17:19.599Z,79.17
2022-08-02T12:19:47.890Z,79.51
2022-08-02T12:22:24.640Z,77.22
2022-08-02T12:24:55.556Z,76.87
2022-08-02T12:27:31.711Z,76.70
2022-08-02T12:30:09.320Z,75.81
2022-08-02T12:32:36.296Z,75.73
2022-08-02T12:35:02.877Z,75.96
2022-08-02T12:37:29.327Z,74.62
2022-08-02T12:39:55.775Z,74.75
2022-08-02T12:42:22.290Z,75.83
2022-08-02T12:44:58.066Z,73.91
2022-08-02T12:47:24.876Z,74.39
2022-08-02T12:50:20.653Z,73.86
2022-08-02T12:52:48.524Z,74.09
2022-08-02T12:55:24.218Z,73.86
2022-08-02T12:57:58.677Z,75.09
2022-08-02T13:00:51.865Z,73.25
2022-08-02T13:04:09.000Z,74.17
2022-08-02T13:06:23.047Z,71.85
2022-08-02T13:08:58.467Z,73.42
2022-08-02T13:11:25.115Z,72.69
2022-08-02T13:13:51.608Z,71.76
2022-08-02T13:16:18.084Z,72.32
2022-08-02T13:18:57.396Z,69.39
2022-08-02T13:21:40.671Z,69.08
2022-08-02T13:24:32.806Z,66.78
2022-08-02T13:26:57.753Z,64.83
2022-08-02T13:29:25.724Z,62.92
2022-08-02T13:31:52.294Z,61.85
2022-08-02T13:34:18.756Z,59.41
2022-08-02T13:36:45.209Z,60.93
2022-08-02T13:39:12.038Z,62.24
2022-08-02T13:41:38.506Z,59.76
2022-08-02T13:44:10.309Z,61.92
2022-08-02T13:46:39.742Z,60.52
2022-08-02T13:49:17.859Z,59.60
2022-08-02T13:51:45.830Z,58.27
2022-08-02T13:54:12.294Z,59.77
2022-08-02T13:56:38.730Z,59.96
2022-08-02T13:59:23.678Z,60.00
2022-08-02T14:01:52.538Z,61.29
2022-08-02T14:04:19.089Z,59.87
2022-08-02T14:06:45.514Z,59.74
2022-08-02T14:09:16.737Z,59.14
2022-08-02T14:11:43.959Z,59.18
2022-08-02T14:14:15.671Z,58.93
2022-08-02T14:16:43.419Z,58.96
2022-08-02T14:19:16.679Z,60.63
2022-08-02T14:21:47.905Z,61.01
2022-08-02T14:24:20.271Z,60.79
2022-08-02T14:26:46.925Z,62.22
2022-08-02T14:29:14.051Z,63.65
2022-08-02T14:31:44.474Z,64.06
2022-08-02T14:34:14.968Z,64.47
2022-08-02T14:36:41.452Z,65.77
2022-08-02T14:39:07.935Z,65.84
2022-08-02T14:42:00.212Z,65.78
2022-08-02T14:44:22.865Z,65.09
2022-08-02T14:46:51.353Z,66.04
2022-08-02T14:49:25.374Z,66.96
2022-08-02T14:51:53.966Z,67.18
2022-08-02T14:54:20.442Z,69.98
2022-08-02T14:56:55.767Z,71.30
2022-08-02T14:59:22.265Z,69.21
2022-08-02T15:01:48.728Z,70.74
2022-08-02T15:04:15.317Z,69.76
2022-08-02T15:06:41.865Z,69.39
2022-08-02T15:09:08.378Z,69.22
2022-08-02T15:11:47.920Z,70.05
2022-08-02T15:14:22.183Z,69.93
2022-08-02T15:16:58.354Z,70.62
2022-08-02T15:19:56.702Z,70.75
2022-08-02T15:22:16.600Z,67.75
2022-08-02T15:24:45.477Z,68.13
2022-08-02T15:27:14.116Z,68.25
2022-08-02T15:29:41.540Z,67.09
2022-08-02T15:32:08.058Z,65.32
2022-08-02T15:34:34.560Z,65.36
2022-08-02T15:37:01.039Z,65.17
2022-08-02T15:39:27.490Z,64.48
2022-08-02T15:41:53.952Z,63.67
2022-08-02T15:44:20.387Z,63.38
2022-08-02T15:46:46.851Z,63.06
2022-08-02T15:49:13.310Z,63.03
2022-08-02T15:51:39.805Z,61.43
2022-08-02T15:54:06.295Z,59.54
2022-08-02T15:56:32.747Z,59.67
2022-08-02T15:58:59.241Z,59.99
2022-08-02T16:01:38.026Z,59.81
2022-08-02T16:04:06.344Z,60.26
2022-08-02T16:06:33.269Z,60.66
2022-08-02T16:08:59.729Z,62.96
2022-08-02T16:11:26.188Z,63.16
2022-08-02T16:13:55.509Z,61.99
2022-08-02T16:16:33.167Z,61.26
2022-08-02T16:19:00.099Z,60.07
2022-08-02T16:21:48.126Z,58.69
2022-08-02T16:24:14.574Z,57.70
2022-08-02T16:26:41.128Z,58.17
2022-08-02T16:29:07.597Z,59.20
2022-08-02T16:31:36.497Z,57.83
2022-08-02T16:34:05.156Z,56.24
2022-08-02T16:36:31.695Z,56.11
2022-08-02T16:38:58.189Z,55.88
2022-08-02T16:41:24.694Z,57.15
2022-08-02T16:44:11.161Z,57.25
2022-08-02T16:46:37.725Z,57.34
2022-08-02T16:49:04.313Z,57.54
2022-08-02T16:51:30.889Z,60.21
2022-08-02T16:53:59.063Z,61.98
2022-08-02T16:56:27.413Z,64.58
2022-08-02T16:58:53.902Z,64.75
2022-08-02T17:01:24.164Z,65.86
2022-08-02T17:06:47.656Z,66.28
2022-08-02T17:10:06.427Z,67.04
2022-08-02T17:12:05.686Z,66.97
2022-08-02T17:14:36.655Z,67.79
2022-08-02T17:17:21.875Z,67.38
2022-08-02T17:19:48.389Z,67.92
2022-08-02T17:22:16.093Z,66.67
2022-08-02T17:24:44.292Z,66.89
2022-08-02T17:27:17.066Z,67.41
2022-08-02T17:29:43.588Z,68.43
2022-08-02T17:32:12.901Z,69.67
2022-08-02T17:34:39.667Z,69.13
2022-08-02T17:37:15.542Z,71.37
2022-08-02T17:39:44.122Z,71.83
2022-08-02T17:42:19.698Z,73.22
2022-08-02T17:44:50.954Z,74.65
2022-08-02T17:47:18.124Z,75.51
2022-08-02T17:49:48.389Z,75.93
2022-08-02T17:52:50.987Z,76.65
2022-08-02T17:55:03.277Z,76.10
2022-08-02T17:57:55.381Z,77.26
2022-08-02T18:00:17.218Z,76.97
2022-08-02T18:02:43.651Z,78.92
2022-08-02T18:05:19.567Z,78.03
2022-08-02T18:07:53.022Z,78.31
2022-08-02T18:10:24.810Z,78.96
2022-08-02T18:12:53.607Z,78.66
2022-08-02T18:15:23.075Z,80.15
2022-08-02T18:17:49.614Z,81.34
2022-08-02T18:20:17.069Z,81.20
2022-08-02T18:22:44.902Z,81.06
2022-08-02T18:25:11.824Z,82.14
2022-08-02T18:27:58.267Z,82.60
2022-08-02T18:30:28.505Z,82.63
2022-08-02T18:33:58.365Z,91.90
2022-08-02T18:35:43.334Z,93.29
2022-08-02T18:41:02.923Z,95.12
2022-08-02T18:43:29.931Z,99.23
2022-08-02T18:46:05.703Z,100.00
2022-08-02T18:48:34.927Z,100.00
2022-08-02T18:51:02.211Z,100.00
2022-08-02T18:53:41.875Z,100.00
2022-08-02T18:56:09.206Z,100.00
2022-08-02T18:58:35.687Z,100.00
2022-08-02T19:01:05.243Z,100.00
2022-08-02T19:03:49.144Z,100.00
2022-08-02T19:06:19.848Z,100.00
2022-08-02T19:09:05.994Z,100.00
2022-08-02T19:11:41.049Z,100.00
2022-08-02T19:14:07.822Z,100.00
2022-08-02T19:16:36.586Z,100.00
2022-08-02T19:19:05.777Z,100.00
2022-08-02T19:22:16.258Z,100.00
2022-08-02T19:24:18.966Z,100.00
2022-08-02T19:26:51.739Z,100.00
2022-08-02T19:29:25.077Z,100.00
2022-08-02T19:32:06.400Z,100.00
2022-08-02T19:34:52.836Z,100.00
2022-08-02T19:37:19.383Z,100.00
2022-08-02T19:39:46.149Z,100.00
2022-08-02T19:42:14.559Z,100.00
2022-08-02T19:44:45.026Z,100.00
2022-08-02T19:47:12.619Z,100.00
2022-08-02T19:49:46.242Z,100.00
2022-08-02T19:52:21.579Z,100.00
2022-08-02T19:54:55.562Z,100.00
2022-08-02T19:57:25.038Z,100.00
2022-08-02T19:59:52.476Z,100.00
2022-08-02T20:02:20.631Z,100.00
2022-08-02T20:04:49.911Z,100.00
2022-08-02T20:07:49.953Z,100.00
2022-08-02T20:10:06.742Z,100.00
2022-08-02T20:12:38.757Z,100.00
2022-08-02T20:17:57.402Z,100.00
2022-08-02T20:20:24.052Z,100.00
2022-08-02T20:23:32.837Z,100.00
2022-08-02T20:26:02.155Z,100.00
2022-08-02T20:28:28.924Z,100.00
2022-08-02T20:30:55.471Z,100.00
2022-08-02T20:33:23.224Z,100.00
2022-08-02T20:35:51.590Z,100.00
2022-08-02T20:38:19.908Z,100.00
2022-08-02T20:40:51.348Z,100.00
2022-08-02T20:43:17.831Z,100.00
2022-08-02T20:45:45.780Z,100.00
2022-08-02T20:48:12.278Z,100.00
2022-08-02T20:50:49.490Z,100.00
2022-08-02T20:53:23.561Z,100.00
2022-08-02T20:55:53.398Z,100.00
2022-08-02T20:58:20.135Z,100.00
2022-08-02T21:00:46.903Z,100.00
2022-08-02T21:03:14.416Z,100.00
2022-08-02T21:05:55.227Z,100.00
2022-08-02T21:08:22.845Z,100.00
2022-08-02T21:10:52.460Z,100.00
2022-08-02T21:13:23.215Z,100.00
2022-08-02T21:15:50.777Z,100.00
2022-08-02T21:18:23.010Z,100.00
2022-08-02T21:20:56.083Z,100.00
2022-08-02T21:23:23.357Z,100.00
2022-08-02T21:25:57.392Z,100.00
2022-08-02T21:28:24.891Z,100.00
2022-08-02T21:31:10.559Z,100.00
2022-08-02T21:33:56.708Z,100.00
2022-08-02T21:36:31.726Z,100.00
2022-08-02T21:39:09.032Z,100.00
2022-08-02T21:41:39.918Z,100.00
2022-08-02T21:44:16.971Z,100.00
2022-08-02T21:46:45.400Z,100.00
2022-08-02T21:49:16.323Z,100.00
2022-08-02T21:51:43.375Z,100.00
2022-08-02T21:54:18.147Z,100.00
2022-08-02T21:56:48.467Z,100.00
2022-08-02T21:59:17.114Z,100.00
2022-08-02T22:01:52.408Z,100.00
2022-08-02T22:04:20.516Z,100.00
2022-08-02T22:06:48.825Z,100.00
2022-08-02T22:09:17.877Z,100.00
2022-08-02T22:12:04.040Z,100.00
2022-08-02T22:14:30.499Z,100.00
2022-08-02T22:16:57.061Z,100.00
2022-08-02T22:19:23.504Z,100.00
2022-08-02T22:21:55.607Z,100.00
2022-08-02T22:24:29.846Z,100.00
2022-08-02T22:26:56.831Z,100.00
2022-08-02T22:29:23.326Z,100.00
2022-08-02T22:31:49.784Z,100.00
2022-08-02T22:34:37.045Z,100.00
2022-08-02T22:37:05.836Z,100.00
2022-08-02T22:39:33.893Z,100.00
2022-08-02T22:42:05.534Z,100.00
2022-08-02T22:44:33.744Z,100.00
2022-08-02T22:47:13.739Z,100.00
2022-08-02T22:49:45.410Z,100.00
2022-08-02T22:52:20.280Z,100.00
2022-08-02T22:54:47.567Z,100.00
2022-08-02T22:57:14.022Z,100.00
2022-08-02T22:58:45.113Z,98.57
2022-08-02T22:58:48.814Z,66.38
2022-08-02T22:59:08.008Z,100.00
2022-08-02T22:59:41.138Z,100.00
2022-08-02T23:02:08.967Z,100.00
2022-08-02T23:04:36.574Z,100.00
2022-08-02T23:07:03.522Z,100.00
2022-08-02T23:09:29.999Z,100.00
2022-08-02T23:11:56.474Z,100.00
2022-08-02T23:14:22.938Z,100.00
2022-08-02T23:17:08.410Z,100.00
2022-08-02T23:19:52.747Z,100.00
2022-08-02T23:22:29.417Z,100.00
2022-08-02T23:24:56.162Z,100.00
2022-08-02T23:27:22.604Z,100.00
2022-08-02T23:29:49.052Z,100.00
2022-08-02T23:32:15.899Z,100.00
2022-08-02T23:34:42.856Z,100.00
2022-08-02T23:37:09.382Z,100.00
2022-08-02T23:39:36.383Z,100.00
2022-08-02T23:42:03.850Z,100.00
2022-08-02T23:44:30.492Z,100.00
2022-08-02T23:46:57.563Z,100.00
2022-08-02T23:49:24.217Z,100.00
2022-08-02T23:51:50.828Z,100.00
2022-08-02T23:54:17.723Z,100.00
2022-08-02T23:56:44.405Z,100.00
2022-08-02T23:59:10.963Z,100.00
